PACK61 KPSM-KGUS
Flight info
| Callsign | PACK61 |
|---|---|
| Flight time | N/A |
| Altitude | 38000 |
| Route | CON CAM Q822 GONZZ Q29 KLYNE |
| Aircraft | B762/H-SDFGIRWY/S |
Departure
| Time | 2026-04-24 16:01 |
|---|---|
| Airport | Portsmouth International Airport at Pease (KPSM) |
Arrival
| Time | N/A |
|---|---|
| Airport | Grissom Air Reserve Base (KGUS) |
| Time | Latitude | Longitude | Altitude | Speed | Heading |
|---|---|---|---|---|---|
| 2026-04-24 15:36 | 43.08578 | -70.82225 | 103 ft | 0 kts | 327° |
| 2026-04-24 15:55 | 43.08579 | -70.82225 | 103 ft | 0 kts | 327° |
| 2026-04-24 15:55 | 43.08589 | -70.82235 | 103 ft | 5 kts | 322° |
| 2026-04-24 15:56 | 43.08605 | -70.82307 | 105 ft | 11 kts | 254° |
| 2026-04-24 15:56 | 43.08546 | -70.82423 | 105 ft | 16 kts | 214° |
| 2026-04-24 15:56 | 43.08441 | -70.82389 | 101 ft | 16 kts | 150° |
| 2026-04-24 15:56 | 43.08324 | -70.82295 | 96 ft | 26 kts | 148° |
| 2026-04-24 15:57 | 43.08115 | -70.82122 | 88 ft | 39 kts | 148° |
| 2026-04-24 15:57 | 43.07884 | -70.81932 | 79 ft | 38 kts | 148° |
| 2026-04-24 15:57 | 43.07659 | -70.81749 | 72 ft | 36 kts | 148° |
| 2026-04-24 15:57 | 43.07455 | -70.81585 | 73 ft | 31 kts | 149° |
| 2026-04-24 15:58 | 43.07278 | -70.81439 | 74 ft | 27 kts | 149° |
| 2026-04-24 15:58 | 43.07126 | -70.81313 | 75 ft | 23 kts | 150° |
| 2026-04-24 15:58 | 43.06982 | -70.81197 | 78 ft | 27 kts | 150° |
| 2026-04-24 15:58 | 43.06821 | -70.81069 | 80 ft | 24 kts | 150° |
| 2026-04-24 15:59 | 43.06681 | -70.80961 | 79 ft | 21 kts | 161° |
| 2026-04-24 15:59 | 43.06567 | -70.81042 | 83 ft | 22 kts | 238° |
| 2026-04-24 15:59 | 43.06501 | -70.81220 | 85 ft | 18 kts | 272° |
| 2026-04-24 15:59 | 43.06558 | -70.81316 | 87 ft | 0 kts | 329° |
| 2026-04-24 16:00 | 43.06583 | -70.81337 | 87 ft | 17 kts | 329° |
| 2026-04-24 16:00 | 43.06854 | -70.81557 | 87 ft | 74 kts | 329° |
| 2026-04-24 16:01 | 43.07476 | -70.82064 | 70 ft | 134 kts | 329° |
| 2026-04-24 16:01 | 43.08416 | -70.82828 | 298 ft | 167 kts | 330° |
| 2026-04-24 16:01 | 43.09449 | -70.83632 | 905 ft | 175 kts | 333° |
| 2026-04-24 16:01 | 43.10522 | -70.84448 | 1460 ft | 178 kts | 333° |
| 2026-04-24 16:02 | 43.11681 | -70.85330 | 1585 ft | 191 kts | 333° |
| 2026-04-24 16:02 | 43.12873 | -70.86338 | 1687 ft | 207 kts | 318° |
| 2026-04-24 16:02 | 43.13679 | -70.88060 | 1991 ft | 219 kts | 296° |
| 2026-04-24 16:02 | 43.14282 | -70.90003 | 2448 ft | 225 kts | 295° |
| 2026-04-24 16:03 | 43.14919 | -70.92051 | 2741 ft | 240 kts | 295° |
| 2026-04-24 16:03 | 43.15593 | -70.94204 | 3086 ft | 254 kts | 295° |
| 2026-04-24 16:03 | 43.16358 | -70.96464 | 3610 ft | 259 kts | 300° |
| 2026-04-24 16:03 | 43.16890 | -70.98813 | 4231 ft | 266 kts | 275° |
| 2026-04-24 16:04 | 43.16984 | -71.01335 | 4879 ft | 265 kts | 282° |
| 2026-04-24 16:04 | 43.17270 | -71.03822 | 5523 ft | 266 kts | 281° |
| 2026-04-24 16:04 | 43.17520 | -71.06342 | 6192 ft | 267 kts | 281° |
| 2026-04-24 16:04 | 43.17758 | -71.08843 | 6867 ft | 267 kts | 281° |
| 2026-04-24 16:05 | 43.18217 | -71.13889 | 8233 ft | 267 kts | 282° |
| 2026-04-24 16:05 | 43.18440 | -71.16403 | 8900 ft | 268 kts | 282° |
| 2026-04-24 16:06 | 43.18888 | -71.21493 | 10243 ft | 268 kts | 283° |
| 2026-04-24 16:06 | 43.19122 | -71.24118 | 10502 ft | 284 kts | 283° |
| 2026-04-24 16:06 | 43.19621 | -71.29804 | 10991 ft | 316 kts | 283° |
| 2026-04-24 16:07 | 43.19884 | -71.32861 | 11475 ft | 323 kts | 283° |
| 2026-04-24 16:07 | 43.20145 | -71.35934 | 12169 ft | 324 kts | 283° |
| 2026-04-24 16:07 | 43.20672 | -71.42098 | 13373 ft | 328 kts | 283° |
| 2026-04-24 16:08 | 43.20941 | -71.45242 | 13864 ft | 334 kts | 283° |
| 2026-04-24 16:08 | 43.21479 | -71.51608 | 15068 ft | 335 kts | 284° |
| 2026-04-24 16:09 | 43.21876 | -71.58083 | 16062 ft | 349 kts | 274° |
| 2026-04-24 16:09 | 43.21491 | -71.61408 | 16496 ft | 358 kts | 268° |
| 2026-04-24 16:09 | 43.21101 | -71.64770 | 17033 ft | 358 kts | 269° |
| 2026-04-24 16:09 | 43.20691 | -71.68192 | 17472 ft | 363 kts | 269° |
| 2026-04-24 16:10 | 43.19453 | -71.78507 | 19029 ft | 369 kts | 269° |
| 2026-04-24 16:11 | 43.18606 | -71.85487 | 19951 ft | 375 kts | 269° |
| 2026-04-24 16:11 | 43.18172 | -71.89036 | 20518 ft | 375 kts | 269° |
| 2026-04-24 16:11 | 43.17742 | -71.92547 | 21067 ft | 375 kts | 269° |
| 2026-04-24 16:12 | 43.16865 | -71.99690 | 21900 ft | 381 kts | 269° |
| 2026-04-24 16:12 | 43.16426 | -72.03242 | 22433 ft | 381 kts | 269° |
| 2026-04-24 16:12 | 43.15526 | -72.10513 | 23219 ft | 386 kts | 268° |
| 2026-04-24 16:13 | 43.15080 | -72.14093 | 23686 ft | 387 kts | 269° |
| 2026-04-24 16:13 | 43.14296 | -72.20374 | 24327 ft | 392 kts | 268° |